sensor_id;sensor_type;location;lat;lon;timestamp;temperature;humidity
67196;DHT22;54122;53.538;49.366;2023-04-25T00:01:47;11.60;62.30
67196;DHT22;54122;53.538;49.366;2023-04-25T00:04:13;11.70;62.00
67196;DHT22;54122;53.538;49.366;2023-04-25T00:06:39;11.70;61.80
67196;DHT22;54122;53.538;49.366;2023-04-25T00:09:08;11.80;61.70
67196;DHT22;54122;53.538;49.366;2023-04-25T00:11:36;11.90;61.90
67196;DHT22;54122;53.538;49.366;2023-04-25T00:14:03;11.90;61.80
67196;DHT22;54122;53.538;49.366;2023-04-25T00:16:30;11.90;61.70
67196;DHT22;54122;53.538;49.366;2023-04-25T00:19:01;11.90;61.60
67196;DHT22;54122;53.538;49.366;2023-04-25T00:21:28;12.00;61.70
67196;DHT22;54122;53.538;49.366;2023-04-25T00:23:55;12.10;61.40
67196;DHT22;54122;53.538;49.366;2023-04-25T00:26:21;12.10;61.10
67196;DHT22;54122;53.538;49.366;2023-04-25T00:28:48;12.10;61.10
67196;DHT22;54122;53.538;49.366;2023-04-25T00:31:14;12.10;61.00
67196;DHT22;54122;53.538;49.366;2023-04-25T00:33:40;12.10;61.00
67196;DHT22;54122;53.538;49.366;2023-04-25T00:36:07;12.20;60.90
67196;DHT22;54122;53.538;49.366;2023-04-25T00:38:33;12.20;61.00
67196;DHT22;54122;53.538;49.366;2023-04-25T00:40:59;12.20;60.90
67196;DHT22;54122;53.538;49.366;2023-04-25T00:43:27;12.20;60.90
67196;DHT22;54122;53.538;49.366;2023-04-25T00:45:53;12.20;60.80
67196;DHT22;54122;53.538;49.366;2023-04-25T00:48:23;12.30;60.90
67196;DHT22;54122;53.538;49.366;2023-04-25T00:50:54;12.30;61.90
67196;DHT22;54122;53.538;49.366;2023-04-25T00:53:26;12.30;61.00
67196;DHT22;54122;53.538;49.366;2023-04-25T00:55:52;12.40;61.10
67196;DHT22;54122;53.538;49.366;2023-04-25T00:58:20;12.40;60.90
67196;DHT22;54122;53.538;49.366;2023-04-25T01:00:48;12.40;60.90
67196;DHT22;54122;53.538;49.366;2023-04-25T01:03:16;12.40;60.90
67196;DHT22;54122;53.538;49.366;2023-04-25T01:05:43;12.50;60.80
67196;DHT22;54122;53.538;49.366;2023-04-25T01:08:10;12.50;60.70
67196;DHT22;54122;53.538;49.366;2023-04-25T01:10:38;12.50;60.70
67196;DHT22;54122;53.538;49.366;2023-04-25T01:13:05;12.50;60.70
67196;DHT22;54122;53.538;49.366;2023-04-25T01:15:31;12.50;60.70
67196;DHT22;54122;53.538;49.366;2023-04-25T01:17:58;12.50;60.80
67196;DHT22;54122;53.538;49.366;2023-04-25T01:20:28;12.50;60.80
67196;DHT22;54122;53.538;49.366;2023-04-25T01:22:55;12.60;60.60
67196;DHT22;54122;53.538;49.366;2023-04-25T01:25:22;12.60;60.60
67196;DHT22;54122;53.538;49.366;2023-04-25T01:27:48;12.60;60.50
67196;DHT22;54122;53.538;49.366;2023-04-25T01:30:15;12.60;60.40
67196;DHT22;54122;53.538;49.366;2023-04-25T01:32:42;12.70;60.60
67196;DHT22;54122;53.538;49.366;2023-04-25T01:35:10;12.80;60.40
67196;DHT22;54122;53.538;49.366;2023-04-25T01:37:41;12.70;60.20
67196;DHT22;54122;53.538;49.366;2023-04-25T01:40:09;12.80;60.10
67196;DHT22;54122;53.538;49.366;2023-04-25T01:42:37;12.80;60.20
67196;DHT22;54122;53.538;49.366;2023-04-25T01:45:04;12.70;60.20
67196;DHT22;54122;53.538;49.366;2023-04-25T01:47:30;12.80;60.30
67196;DHT22;54122;53.538;49.366;2023-04-25T01:49:56;12.80;60.40
67196;DHT22;54122;53.538;49.366;2023-04-25T01:52:23;12.70;60.50
67196;DHT22;54122;53.538;49.366;2023-04-25T01:54:49;12.80;60.50
67196;DHT22;54122;53.538;49.366;2023-04-25T01:57:16;12.80;60.60
67196;DHT22;54122;53.538;49.366;2023-04-25T01:59:43;12.90;60.60
67196;DHT22;54122;53.538;49.366;2023-04-25T02:02:09;12.90;60.50
67196;DHT22;54122;53.538;49.366;2023-04-25T02:04:35;12.90;61.40
67196;DHT22;54122;53.538;49.366;2023-04-25T02:07:02;13.00;60.20
67196;DHT22;54122;53.538;49.366;2023-04-25T02:09:29;13.10;60.10
67196;DHT22;54122;53.538;49.366;2023-04-25T02:11:55;13.10;60.20
67196;DHT22;54122;53.538;49.366;2023-04-25T02:14:21;13.10;60.20
67196;DHT22;54122;53.538;49.366;2023-04-25T02:16:47;13.20;60.20
67196;DHT22;54122;53.538;49.366;2023-04-25T02:19:13;13.20;60.20
67196;DHT22;54122;53.538;49.366;2023-04-25T02:21:44;13.20;60.20
67196;DHT22;54122;53.538;49.366;2023-04-25T02:24:10;13.20;60.20
67196;DHT22;54122;53.538;49.366;2023-04-25T02:26:36;13.20;60.80
67196;DHT22;54122;53.538;49.366;2023-04-25T02:29:02;13.20;60.90
67196;DHT22;54122;53.538;49.366;2023-04-25T02:31:28;13.20;61.20
67196;DHT22;54122;53.538;49.366;2023-04-25T02:33:54;13.20;61.50
67196;DHT22;54122;53.538;49.366;2023-04-25T02:36:20;13.30;61.70
67196;DHT22;54122;53.538;49.366;2023-04-25T02:38:47;13.30;61.70
67196;DHT22;54122;53.538;49.366;2023-04-25T02:41:13;13.40;61.70
67196;DHT22;54122;53.538;49.366;2023-04-25T02:43:39;13.40;62.00
67196;DHT22;54122;53.538;49.366;2023-04-25T02:46:05;13.40;62.50
67196;DHT22;54122;53.538;49.366;2023-04-25T02:48:31;13.30;63.50
67196;DHT22;54122;53.538;49.366;2023-04-25T02:50:58;13.20;64.10
67196;DHT22;54122;53.538;49.366;2023-04-25T02:53:24;13.20;65.00
67196;DHT22;54122;53.538;49.366;2023-04-25T02:55:50;13.20;65.40
67196;DHT22;54122;53.538;49.366;2023-04-25T02:58:18;13.20;66.00
67196;DHT22;54122;53.538;49.366;2023-04-25T03:00:44;13.20;66.50
67196;DHT22;54122;53.538;49.366;2023-04-25T03:03:10;13.10;67.00
67196;DHT22;54122;53.538;49.366;2023-04-25T03:05:37;13.20;67.60
67196;DHT22;54122;53.538;49.366;2023-04-25T03:08:03;13.20;68.00
67196;DHT22;54122;53.538;49.366;2023-04-25T03:10:29;13.30;68.00
67196;DHT22;54122;53.538;49.366;2023-04-25T03:12:56;13.40;68.00
67196;DHT22;54122;53.538;49.366;2023-04-25T03:15:22;13.50;67.80
67196;DHT22;54122;53.538;49.366;2023-04-25T03:17:48;13.60;68.10
67196;DHT22;54122;53.538;49.366;2023-04-25T03:20:14;13.70;68.30
67196;DHT22;54122;53.538;49.366;2023-04-25T03:22:40;13.70;68.20
67196;DHT22;54122;53.538;49.366;2023-04-25T03:25:06;13.80;68.20
67196;DHT22;54122;53.538;49.366;2023-04-25T03:27:33;13.80;68.70
67196;DHT22;54122;53.538;49.366;2023-04-25T03:29:59;13.90;68.40
67196;DHT22;54122;53.538;49.366;2023-04-25T03:32:25;13.90;68.70
67196;DHT22;54122;53.538;49.366;2023-04-25T03:34:51;13.80;69.70
67196;DHT22;54122;53.538;49.366;2023-04-25T03:37:18;13.70;69.50
67196;DHT22;54122;53.538;49.366;2023-04-25T03:39:44;13.70;69.90
67196;DHT22;54122;53.538;49.366;2023-04-25T03:42:10;13.70;70.10
67196;DHT22;54122;53.538;49.366;2023-04-25T03:44:36;13.70;70.00
67196;DHT22;54122;53.538;49.366;2023-04-25T03:47:02;13.80;70.30
67196;DHT22;54122;53.538;49.366;2023-04-25T03:49:28;13.90;70.80
67196;DHT22;54122;53.538;49.366;2023-04-25T03:51:54;13.90;70.70
67196;DHT22;54122;53.538;49.366;2023-04-25T03:54:20;14.00;70.30
67196;DHT22;54122;53.538;49.366;2023-04-25T03:56:46;14.10;70.20
67196;DHT22;54122;53.538;49.366;2023-04-25T03:59:14;14.10;70.30
67196;DHT22;54122;53.538;49.366;2023-04-25T04:01:40;14.20;70.20
67196;DHT22;54122;53.538;49.366;2023-04-25T04:04:06;14.30;70.60
67196;DHT22;54122;53.538;49.366;2023-04-25T04:06:32;14.20;71.00
67196;DHT22;54122;53.538;49.366;2023-04-25T04:09:04;14.20;71.80
67196;DHT22;54122;53.538;49.366;2023-04-25T04:11:30;14.30;72.10
67196;DHT22;54122;53.538;49.366;2023-04-25T04:13:58;14.40;72.20
67196;DHT22;54122;53.538;49.366;2023-04-25T04:16:24;14.50;72.10
67196;DHT22;54122;53.538;49.366;2023-04-25T04:18:51;14.70;71.80
67196;DHT22;54122;53.538;49.366;2023-04-25T04:21:17;14.80;71.30
67196;DHT22;54122;53.538;49.366;2023-04-25T04:26:29;15.10;70.40
67196;DHT22;54122;53.538;49.366;2023-04-25T04:28:57;15.20;69.80
67196;DHT22;54122;53.538;49.366;2023-04-25T04:31:25;15.30;69.30
67196;DHT22;54122;53.538;49.366;2023-04-25T04:34:10;15.40;68.50
67196;DHT22;54122;53.538;49.366;2023-04-25T04:36:36;15.70;67.30
67196;DHT22;54122;53.538;49.366;2023-04-25T04:39:26;16.20;66.10
67196;DHT22;54122;53.538;49.366;2023-04-25T04:42:11;16.70;63.60
67196;DHT22;54122;53.538;49.366;2023-04-25T04:44:37;17.00;61.20
67196;DHT22;54122;53.538;49.366;2023-04-25T04:47:05;17.00;59.80
67196;DHT22;54122;53.538;49.366;2023-04-25T04:49:37;16.90;59.00
67196;DHT22;54122;53.538;49.366;2023-04-25T04:52:03;16.90;59.20
67196;DHT22;54122;53.538;49.366;2023-04-25T04:54:29;16.90;58.50
67196;DHT22;54122;53.538;49.366;2023-04-25T04:56:55;16.90;57.90
67196;DHT22;54122;53.538;49.366;2023-04-25T04:59:22;16.90;58.00
67196;DHT22;54122;53.538;49.366;2023-04-25T05:01:48;16.90;57.40
67196;DHT22;54122;53.538;49.366;2023-04-25T05:04:14;17.10;57.20
67196;DHT22;54122;53.538;49.366;2023-04-25T05:06:40;17.40;56.40
67196;DHT22;54122;53.538;49.366;2023-04-25T05:09:06;17.60;55.80
67196;DHT22;54122;53.538;49.366;2023-04-25T05:11:33;17.90;54.40
67196;DHT22;54122;53.538;49.366;2023-04-25T05:13:59;18.20;53.30
67196;DHT22;54122;53.538;49.366;2023-04-25T05:16:25;18.50;52.20
67196;DHT22;54122;53.538;49.366;2023-04-25T05:18:51;18.70;51.30
67196;DHT22;54122;53.538;49.366;2023-04-25T05:24:21;19.10;49.70
67196;DHT22;54122;53.538;49.366;2023-04-25T05:26:52;19.10;49.10
67196;DHT22;54122;53.538;49.366;2023-04-25T05:29:19;19.00;49.10
67196;DHT22;54122;53.538;49.366;2023-04-25T05:31:45;18.90;49.00
67196;DHT22;54122;53.538;49.366;2023-04-25T05:34:11;18.80;49.80
67196;DHT22;54122;53.538;49.366;2023-04-25T05:36:37;18.60;49.80
67196;DHT22;54122;53.538;49.366;2023-04-25T05:39:03;18.40;49.70
67196;DHT22;54122;53.538;49.366;2023-04-25T05:41:48;18.20;50.60
67196;DHT22;54122;53.538;49.366;2023-04-25T05:44:14;18.10;50.90
67196;DHT22;54122;53.538;49.366;2023-04-25T05:46:42;18.20;50.70
67196;DHT22;54122;53.538;49.366;2023-04-25T05:49:08;18.30;50.60
67196;DHT22;54122;53.538;49.366;2023-04-25T05:51:53;18.40;50.10
67196;DHT22;54122;53.538;49.366;2023-04-25T05:54:20;18.60;49.80
67196;DHT22;54122;53.538;49.366;2023-04-25T05:56:46;18.70;49.20
67196;DHT22;54122;53.538;49.366;2023-04-25T06:01:58;19.00;48.90
67196;DHT22;54122;53.538;49.366;2023-04-25T06:04:25;19.30;48.00
67196;DHT22;54122;53.538;49.366;2023-04-25T06:06:51;19.50;47.50
67196;DHT22;54122;53.538;49.366;2023-04-25T06:09:18;19.60;47.00
67196;DHT22;54122;53.538;49.366;2023-04-25T06:11:44;19.50;46.60
67196;DHT22;54122;53.538;49.366;2023-04-25T06:14:11;19.60;46.60
67196;DHT22;54122;53.538;49.366;2023-04-25T06:16:37;19.80;46.30
67196;DHT22;54122;53.538;49.366;2023-04-25T06:22:07;19.80;46.30
67196;DHT22;54122;53.538;49.366;2023-04-25T06:24:34;19.60;46.70
67196;DHT22;54122;53.538;49.366;2023-04-25T06:27:01;19.40;47.10
67196;DHT22;54122;53.538;49.366;2023-04-25T06:29:32;19.50;47.20
67196;DHT22;54122;53.538;49.366;2023-04-25T06:31:59;19.40;47.60
67196;DHT22;54122;53.538;49.366;2023-04-25T06:34:25;19.30;47.60
67196;DHT22;54122;53.538;49.366;2023-04-25T06:36:52;19.30;47.60
67196;DHT22;54122;53.538;49.366;2023-04-25T06:39:18;19.20;47.90
67196;DHT22;54122;53.538;49.366;2023-04-25T06:41:46;19.20;47.80
67196;DHT22;54122;53.538;49.366;2023-04-25T06:44:13;19.20;48.40
67196;DHT22;54122;53.538;49.366;2023-04-25T06:47:17;19.10;48.30
67196;DHT22;54122;53.538;49.366;2023-04-25T06:49:44;19.10;48.60
67196;DHT22;54122;53.538;49.366;2023-04-25T06:52:15;18.90;48.60
67196;DHT22;54122;53.538;49.366;2023-04-25T06:54:41;18.90;49.40
67196;DHT22;54122;53.538;49.366;2023-04-25T06:57:12;18.80;49.70
67196;DHT22;54122;53.538;49.366;2023-04-25T06:59:39;18.60;50.90
67196;DHT22;54122;53.538;49.366;2023-04-25T07:02:05;18.40;51.60
67196;DHT22;54122;53.538;49.366;2023-04-25T07:04:32;18.20;52.50
67196;DHT22;54122;53.538;49.366;2023-04-25T07:07:17;18.20;53.50
67196;DHT22;54122;53.538;49.366;2023-04-25T07:09:43;18.10;54.50
67196;DHT22;54122;53.538;49.366;2023-04-25T07:12:09;17.80;55.30
67196;DHT22;54122;53.538;49.366;2023-04-25T07:14:35;17.80;56.00
67196;DHT22;54122;53.538;49.366;2023-04-25T07:17:01;17.80;57.00
67196;DHT22;54122;53.538;49.366;2023-04-25T07:19:28;17.70;57.20
67196;DHT22;54122;53.538;49.366;2023-04-25T07:21:55;17.50;57.80
67196;DHT22;54122;53.538;49.366;2023-04-25T07:24:40;17.30;59.30
67196;DHT22;54122;53.538;49.366;2023-04-25T07:27:06;17.30;59.50
67196;DHT22;54122;53.538;49.366;2023-04-25T07:29:33;17.40;59.90
67196;DHT22;54122;53.538;49.366;2023-04-25T07:32:02;17.70;60.00
67196;DHT22;54122;53.538;49.366;2023-04-25T07:37:13;18.30;57.20
67196;DHT22;54122;53.538;49.366;2023-04-25T07:39:40;18.30;56.90
67196;DHT22;54122;53.538;49.366;2023-04-25T07:42:06;18.30;56.80
67196;DHT22;54122;53.538;49.366;2023-04-25T07:44:35;18.30;56.50
67196;DHT22;54122;53.538;49.366;2023-04-25T07:47:05;18.30;56.80
67196;DHT22;54122;53.538;49.366;2023-04-25T07:52:24;18.20;58.00
67196;DHT22;54122;53.538;49.366;2023-04-25T07:54:50;18.20;57.10
67196;DHT22;54122;53.538;49.366;2023-04-25T07:57:17;18.30;56.60
67196;DHT22;54122;53.538;49.366;2023-04-25T08:00:03;18.50;55.90
67196;DHT22;54122;53.538;49.366;2023-04-25T08:02:29;18.60;54.90
67196;DHT22;54122;53.538;49.366;2023-04-25T08:04:56;18.50;54.10
67196;DHT22;54122;53.538;49.366;2023-04-25T08:07:22;18.30;54.60
67196;DHT22;54122;53.538;49.366;2023-04-25T08:09:49;18.10;54.30
67196;DHT22;54122;53.538;49.366;2023-04-25T08:12:15;18.10;54.30
67196;DHT22;54122;53.538;49.366;2023-04-25T08:14:47;18.30;53.90
67196;DHT22;54122;53.538;49.366;2023-04-25T08:17:13;18.50;53.80
67196;DHT22;54122;53.538;49.366;2023-04-25T08:19:40;18.60;52.80
67196;DHT22;54122;53.538;49.366;2023-04-25T08:22:06;18.90;51.40
67196;DHT22;54122;53.538;49.366;2023-04-25T08:24:32;19.20;50.20
67196;DHT22;54122;53.538;49.366;2023-04-25T08:27:18;19.30;48.60
67196;DHT22;54122;53.538;49.366;2023-04-25T08:29:44;19.40;48.50
67196;DHT22;54122;53.538;49.366;2023-04-25T08:32:30;19.40;48.20
67196;DHT22;54122;53.538;49.366;2023-04-25T08:34:56;19.30;48.70
67196;DHT22;54122;53.538;49.366;2023-04-25T08:37:22;19.10;50.40
67196;DHT22;54122;53.538;49.366;2023-04-25T08:40:07;19.10;49.50
67196;DHT22;54122;53.538;49.366;2023-04-25T08:42:37;19.10;49.50
67196;DHT22;54122;53.538;49.366;2023-04-25T08:45:04;19.10;49.40
67196;DHT22;54122;53.538;49.366;2023-04-25T08:47:33;19.00;49.40
67196;DHT22;54122;53.538;49.366;2023-04-25T08:50:02;19.10;49.80
67196;DHT22;54122;53.538;49.366;2023-04-25T08:52:35;19.00;50.20
67196;DHT22;54122;53.538;49.366;2023-04-25T08:55:21;19.00;50.80
67196;DHT22;54122;53.538;49.366;2023-04-25T08:57:47;19.00;50.50
67196;DHT22;54122;53.538;49.366;2023-04-25T09:00:14;18.80;50.60
67196;DHT22;54122;53.538;49.366;2023-04-25T09:02:42;18.60;50.90
67196;DHT22;54122;53.538;49.366;2023-04-25T09:05:10;18.40;52.00
67196;DHT22;54122;53.538;49.366;2023-04-25T09:07:38;18.30;53.10
67196;DHT22;54122;53.538;49.366;2023-04-25T09:10:07;18.20;53.70
67196;DHT22;54122;53.538;49.366;2023-04-25T09:12:39;18.20;54.60
67196;DHT22;54122;53.538;49.366;2023-04-25T09:15:07;18.20;54.50
67196;DHT22;54122;53.538;49.366;2023-04-25T09:17:41;18.40;54.00
67196;DHT22;54122;53.538;49.366;2023-04-25T09:20:12;18.50;53.50
67196;DHT22;54122;53.538;49.366;2023-04-25T09:22:39;18.60;52.90
67196;DHT22;54122;53.538;49.366;2023-04-25T09:25:10;18.70;52.80
67196;DHT22;54122;53.538;49.366;2023-04-25T09:27:50;18.80;52.20
67196;DHT22;54122;53.538;49.366;2023-04-25T09:30:18;18.80;52.80
67196;DHT22;54122;53.538;49.366;2023-04-25T09:32:44;19.00;52.60
67196;DHT22;54122;53.538;49.366;2023-04-25T09:35:23;19.20;52.20
67196;DHT22;54122;53.538;49.366;2023-04-25T09:38:14;19.30;52.60
67196;DHT22;54122;53.538;49.366;2023-04-25T09:40:45;19.10;53.20
67196;DHT22;54122;53.538;49.366;2023-04-25T09:43:22;18.60;54.50
67196;DHT22;54122;53.538;49.366;2023-04-25T09:45:50;18.10;57.10
67196;DHT22;54122;53.538;49.366;2023-04-25T09:48:35;17.60;58.90
67196;DHT22;54122;53.538;49.366;2023-04-25T09:51:20;17.40;59.30
67196;DHT22;54122;53.538;49.366;2023-04-25T09:53:51;17.20;60.60
67196;DHT22;54122;53.538;49.366;2023-04-25T09:56:19;17.10;61.20
67196;DHT22;54122;53.538;49.366;2023-04-25T09:58:47;17.10;61.40
67196;DHT22;54122;53.538;49.366;2023-04-25T10:01:16;17.10;61.70
67196;DHT22;54122;53.538;49.366;2023-04-25T10:03:43;17.20;61.90
67196;DHT22;54122;53.538;49.366;2023-04-25T10:06:18;17.20;62.00
67196;DHT22;54122;53.538;49.366;2023-04-25T10:08:45;17.10;60.90
67196;DHT22;54122;53.538;49.366;2023-04-25T10:11:15;16.90;61.30
67196;DHT22;54122;53.538;49.366;2023-04-25T10:13:43;16.80;61.70
67196;DHT22;54122;53.538;49.366;2023-04-25T10:16:09;16.70;63.20
67196;DHT22;54122;53.538;49.366;2023-04-25T10:18:36;16.80;62.80
67196;DHT22;54122;53.538;49.366;2023-04-25T10:21:22;16.90;62.10
67196;DHT22;54122;53.538;49.366;2023-04-25T10:23:49;17.00;61.20
67196;DHT22;54122;53.538;49.366;2023-04-25T10:26:16;17.00;61.10
67196;DHT22;54122;53.538;49.366;2023-04-25T10:28:58;17.00;60.80
67196;DHT22;54122;53.538;49.366;2023-04-25T10:31:24;16.90;61.20
67196;DHT22;54122;53.538;49.366;2023-04-25T10:34:09;16.70;62.80
67196;DHT22;54122;53.538;49.366;2023-04-25T10:39:26;16.50;64.60
67196;DHT22;54122;53.538;49.366;2023-04-25T10:42:11;16.50;64.80
67196;DHT22;54122;53.538;49.366;2023-04-25T10:44:38;16.40;65.70
67196;DHT22;54122;53.538;49.366;2023-04-25T10:47:07;16.30;65.70
67196;DHT22;54122;53.538;49.366;2023-04-25T10:49:41;16.20;66.70
67196;DHT22;54122;53.538;49.366;2023-04-25T10:52:27;16.20;67.70
67196;DHT22;54122;53.538;49.366;2023-04-25T10:54:57;16.30;67.50
67196;DHT22;54122;53.538;49.366;2023-04-25T11:00:23;16.20;67.80
67196;DHT22;54122;53.538;49.366;2023-04-25T11:05:45;16.00;68.50
67196;DHT22;54122;53.538;49.366;2023-04-25T11:08:13;15.90;69.20
67196;DHT22;54122;53.538;49.366;2023-04-25T11:10:43;15.80;70.00
67196;DHT22;54122;53.538;49.366;2023-04-25T11:13:10;15.70;70.40
67196;DHT22;54122;53.538;49.366;2023-04-25T11:15:37;15.70;70.70
67196;DHT22;54122;53.538;49.366;2023-04-25T11:18:03;15.60;71.50
67196;DHT22;54122;53.538;49.366;2023-04-25T11:20:29;15.60;72.00
67196;DHT22;54122;53.538;49.366;2023-04-25T11:23:15;15.70;72.00
67196;DHT22;54122;53.538;49.366;2023-04-25T11:25:42;15.80;72.40
67196;DHT22;54122;53.538;49.366;2023-04-25T11:28:08;15.90;72.20
67196;DHT22;54122;53.538;49.366;2023-04-25T11:30:34;16.00;73.00
67196;DHT22;54122;53.538;49.366;2023-04-25T11:33:01;15.90;72.80
67196;DHT22;54122;53.538;49.366;2023-04-25T11:35:46;15.80;72.80
67196;DHT22;54122;53.538;49.366;2023-04-25T11:38:15;15.70;73.00
67196;DHT22;54122;53.538;49.366;2023-04-25T11:40:59;15.50;74.00
67196;DHT22;54122;53.538;49.366;2023-04-25T11:43:26;15.30;75.00
67196;DHT22;54122;53.538;49.366;2023-04-25T11:45:52;15.20;76.00
67196;DHT22;54122;53.538;49.366;2023-04-25T11:48:19;15.20;76.40
67196;DHT22;54122;53.538;49.366;2023-04-25T11:50:48;15.20;76.80
67196;DHT22;54122;53.538;49.366;2023-04-25T11:53:33;15.20;77.60
67196;DHT22;54122;53.538;49.366;2023-04-25T11:56:18;15.10;77.90
67196;DHT22;54122;53.538;49.366;2023-04-25T11:59:00;15.10;78.50
67196;DHT22;54122;53.538;49.366;2023-04-25T12:04:10;15.00;79.20
67196;DHT22;54122;53.538;49.366;2023-04-25T12:06:40;14.80;79.30
67196;DHT22;54122;53.538;49.366;2023-04-25T12:09:11;14.80;80.20
67196;DHT22;54122;53.538;49.366;2023-04-25T12:11:46;14.80;80.50
67196;DHT22;54122;53.538;49.366;2023-04-25T12:14:30;14.90;81.10
67196;DHT22;54122;53.538;49.366;2023-04-25T12:22:31;15.00;81.40
67196;DHT22;54122;53.538;49.366;2023-04-25T12:24:58;15.00;82.00
67196;DHT22;54122;53.538;49.366;2023-04-25T12:27:25;14.90;82.60
67196;DHT22;54122;53.538;49.366;2023-04-25T12:30:11;14.90;83.40
67196;DHT22;54122;53.538;49.366;2023-04-25T12:32:56;14.90;83.40
67196;DHT22;54122;53.538;49.366;2023-04-25T12:35:22;14.80;84.40
67196;DHT22;54122;53.538;49.366;2023-04-25T12:37:49;14.90;84.70
67196;DHT22;54122;53.538;49.366;2023-04-25T12:40:15;14.90;85.30
67196;DHT22;54122;53.538;49.366;2023-04-25T12:42:41;14.80;85.60
67196;DHT22;54122;53.538;49.366;2023-04-25T12:45:26;14.90;86.60
67196;DHT22;54122;53.538;49.366;2023-04-25T12:47:54;14.80;85.70
67196;DHT22;54122;53.538;49.366;2023-04-25T12:53:23;14.70;86.20
67196;DHT22;54122;53.538;49.366;2023-04-25T12:56:08;14.60;86.50
67196;DHT22;54122;53.538;49.366;2023-04-25T12:58:35;14.50;86.90
67196;DHT22;54122;53.538;49.366;2023-04-25T13:04:05;14.30;88.30
67196;DHT22;54122;53.538;49.366;2023-04-25T13:06:32;14.30;89.40
67196;DHT22;54122;53.538;49.366;2023-04-25T13:08:58;14.20;90.00
67196;DHT22;54122;53.538;49.366;2023-04-25T13:11:25;14.10;90.40
67196;DHT22;54122;53.538;49.366;2023-04-25T13:13:51;14.10;90.50
67196;DHT22;54122;53.538;49.366;2023-04-25T13:16:36;14.10;90.70
67196;DHT22;54122;53.538;49.366;2023-04-25T13:19:03;14.10;90.80
67196;DHT22;54122;53.538;49.366;2023-04-25T13:21:30;14.10;91.10
67196;DHT22;54122;53.538;49.366;2023-04-25T13:23:58;14.20;91.20
67196;DHT22;54122;53.538;49.366;2023-04-25T13:26:25;14.10;91.20
67196;DHT22;54122;53.538;49.366;2023-04-25T13:28:51;14.10;91.40
67196;DHT22;54122;53.538;49.366;2023-04-25T13:31:18;14.20;91.50
67196;DHT22;54122;53.538;49.366;2023-04-25T13:36:29;14.30;91.40
67196;DHT22;54122;53.538;49.366;2023-04-25T13:39:15;14.30;91.50
67196;DHT22;54122;53.538;49.366;2023-04-25T13:41:46;14.30;91.10
67196;DHT22;54122;53.538;49.366;2023-04-25T13:44:13;14.30;91.40
67196;DHT22;54122;53.538;49.366;2023-04-25T13:46:39;14.30;91.40
67196;DHT22;54122;53.538;49.366;2023-04-25T13:49:07;14.40;91.60
67196;DHT22;54122;53.538;49.366;2023-04-25T13:51:34;14.40;91.70
67196;DHT22;54122;53.538;49.366;2023-04-25T13:54:01;14.50;91.70
67196;DHT22;54122;53.538;49.366;2023-04-25T13:56:27;14.40;91.50
67196;DHT22;54122;53.538;49.366;2023-04-25T13:58:53;14.40;91.80
67196;DHT22;54122;53.538;49.366;2023-04-25T14:01:38;14.40;92.00
67196;DHT22;54122;53.538;49.366;2023-04-25T14:04:04;14.40;91.80
67196;DHT22;54122;53.538;49.366;2023-04-25T14:06:31;14.40;92.00
67196;DHT22;54122;53.538;49.366;2023-04-25T14:08:57;14.30;92.20
67196;DHT22;54122;53.538;49.366;2023-04-25T14:11:26;14.30;92.40
67196;DHT22;54122;53.538;49.366;2023-04-25T14:14:11;14.30;92.40
67196;DHT22;54122;53.538;49.366;2023-04-25T14:16:39;14.20;92.20
67196;DHT22;54122;53.538;49.366;2023-04-25T14:19:05;14.10;92.70
67196;DHT22;54122;53.538;49.366;2023-04-25T14:21:31;14.10;93.00
67196;DHT22;54122;53.538;49.366;2023-04-25T14:23:58;14.10;93.20
67196;DHT22;54122;53.538;49.366;2023-04-25T14:26:43;14.00;93.30
67196;DHT22;54122;53.538;49.366;2023-04-25T14:29:09;13.90;93.50
67196;DHT22;54122;53.538;49.366;2023-04-25T14:31:38;13.90;94.00
67196;DHT22;54122;53.538;49.366;2023-04-25T14:34:07;13.90;94.20
67196;DHT22;54122;53.538;49.366;2023-04-25T14:39:19;13.90;94.80
67196;DHT22;54122;53.538;49.366;2023-04-25T14:41:45;13.90;94.50
67196;DHT22;54122;53.538;49.366;2023-04-25T14:49:42;13.80;94.90
67196;DHT22;54122;53.538;49.366;2023-04-25T14:52:08;13.80;95.00
67196;DHT22;54122;53.538;49.366;2023-04-25T14:54:34;13.70;95.00
67196;DHT22;54122;53.538;49.366;2023-04-25T14:57:01;13.70;95.10
67196;DHT22;54122;53.538;49.366;2023-04-25T14:59:28;13.70;95.40
67196;DHT22;54122;53.538;49.366;2023-04-25T15:02:00;13.70;95.70
67196;DHT22;54122;53.538;49.366;2023-04-25T15:04:45;13.70;95.50
67196;DHT22;54122;53.538;49.366;2023-04-25T15:07:14;13.60;95.70
67196;DHT22;54122;53.538;49.366;2023-04-25T15:09:41;13.60;95.90
67196;DHT22;54122;53.538;49.366;2023-04-25T15:12:07;13.60;95.90
67196;DHT22;54122;53.538;49.366;2023-04-25T15:14:52;13.50;95.90
67196;DHT22;54122;53.538;49.366;2023-04-25T15:20:05;13.50;96.00
67196;DHT22;54122;53.538;49.366;2023-04-25T15:22:32;13.50;96.40
67196;DHT22;54122;53.538;49.366;2023-04-25T15:24:58;13.50;96.70
67196;DHT22;54122;53.538;49.366;2023-04-25T15:27:25;13.50;96.80
67196;DHT22;54122;53.538;49.366;2023-04-25T15:29:53;13.50;96.70
67196;DHT22;54122;53.538;49.366;2023-04-25T15:32:20;13.50;96.70
67196;DHT22;54122;53.538;49.366;2023-04-25T15:34:48;13.60;96.80
67196;DHT22;54122;53.538;49.366;2023-04-25T15:37:16;13.50;96.40
67196;DHT22;54122;53.538;49.366;2023-04-25T15:42:55;13.40;96.60
67196;DHT22;54122;53.538;49.366;2023-04-25T15:45:23;13.40;96.60
67196;DHT22;54122;53.538;49.366;2023-04-25T15:47:51;13.30;97.00
67196;DHT22;54122;53.538;49.366;2023-04-25T15:50:18;13.30;97.20
67196;DHT22;54122;53.538;49.366;2023-04-25T15:53:03;13.30;97.40
67196;DHT22;54122;53.538;49.366;2023-04-25T15:55:48;13.30;97.30
67196;DHT22;54122;53.538;49.366;2023-04-25T15:58:14;13.20;97.50
67196;DHT22;54122;53.538;49.366;2023-04-25T16:00:41;13.30;97.70
67196;DHT22;54122;53.538;49.366;2023-04-25T16:03:09;13.30;97.90
67196;DHT22;54122;53.538;49.366;2023-04-25T16:05:54;13.30;98.00
67196;DHT22;54122;53.538;49.366;2023-04-25T16:08:20;13.30;97.80
67196;DHT22;54122;53.538;49.366;2023-04-25T16:10:46;13.20;98.30
67196;DHT22;54122;53.538;49.366;2023-04-25T16:13:13;13.20;98.30
67196;DHT22;54122;53.538;49.366;2023-04-25T16:15:39;13.20;98.40
67196;DHT22;54122;53.538;49.366;2023-04-25T16:18:05;13.20;98.50
67196;DHT22;54122;53.538;49.366;2023-04-25T16:20:33;13.20;98.50
67196;DHT22;54122;53.538;49.366;2023-04-25T16:22:59;13.10;98.50
67196;DHT22;54122;53.538;49.366;2023-04-25T16:25:26;13.10;98.70